createdAt,value
2018-05-18T00:00:13.308Z,21.86
2018-05-18T00:00:44.881Z,21.84
2018-05-18T00:01:16.482Z,21.84
2018-05-18T00:01:48.092Z,21.83
2018-05-18T00:02:19.698Z,21.84
2018-05-18T00:02:51.302Z,21.85
2018-05-18T00:03:22.904Z,21.83
2018-05-18T00:03:54.534Z,21.85
2018-05-18T00:04:26.138Z,21.85
2018-05-18T00:04:57.741Z,21.84
2018-05-18T00:05:29.350Z,21.84
2018-05-18T00:06:00.954Z,21.83
2018-05-18T00:06:32.557Z,21.83
2018-05-18T00:07:04.166Z,21.82
2018-05-18T00:07:35.750Z,21.82
2018-05-18T00:08:07.351Z,21.83
2018-05-18T00:08:38.934Z,21.84
2018-05-18T00:09:10.602Z,21.84
2018-05-18T00:09:42.176Z,21.84
2018-05-18T00:10:13.754Z,21.84
2018-05-18T00:10:45.320Z,21.83
2018-05-18T00:11:16.907Z,21.83
2018-05-18T00:11:48.477Z,21.81
2018-05-18T00:12:20.045Z,21.81
2018-05-18T00:12:51.649Z,21.80
2018-05-18T00:13:23.263Z,21.80
2018-05-18T00:13:54.846Z,21.80
2018-05-18T00:14:26.494Z,21.81
2018-05-18T00:14:58.082Z,21.82
2018-05-18T00:15:29.673Z,21.81
2018-05-18T00:16:01.279Z,21.80
2018-05-18T00:16:32.852Z,21.80
2018-05-18T00:17:04.424Z,21.82
2018-05-18T00:17:36.010Z,21.82
2018-05-18T00:18:07.625Z,21.83
2018-05-18T00:18:39.213Z,21.82
2018-05-18T00:19:10.861Z,21.82
2018-05-18T00:19:42.459Z,21.84
2018-05-18T00:20:14.042Z,21.82
2018-05-18T00:20:45.653Z,21.82
2018-05-18T00:21:17.260Z,21.82
2018-05-18T00:21:48.887Z,21.82
2018-05-18T00:22:20.457Z,21.82
2018-05-18T00:22:52.034Z,21.81
2018-05-18T00:23:23.624Z,21.82
2018-05-18T00:23:55.214Z,21.81
2018-05-18T00:24:26.808Z,21.81
2018-05-18T00:24:58.390Z,21.80
2018-05-18T00:25:29.994Z,21.80
2018-05-18T00:26:01.588Z,21.80
2018-05-18T00:26:33.233Z,21.82
2018-05-18T00:27:04.866Z,21.81
2018-05-18T00:27:36.460Z,21.79
2018-05-18T00:28:08.064Z,21.81
2018-05-18T00:28:39.683Z,21.81
2018-05-18T00:29:11.263Z,21.81
2018-05-18T00:29:42.870Z,21.81
2018-05-18T00:30:14.478Z,21.81
2018-05-18T00:30:46.081Z,21.80
2018-05-18T00:31:17.692Z,21.80
2018-05-18T00:31:49.329Z,21.81
2018-05-18T00:32:20.934Z,21.82
2018-05-18T00:32:52.513Z,21.82
2018-05-18T00:33:24.081Z,21.82
2018-05-18T00:33:55.674Z,21.81
2018-05-18T00:34:27.248Z,21.81
2018-05-18T00:34:58.826Z,21.81
2018-05-18T00:35:30.461Z,21.80
2018-05-18T00:36:02.066Z,21.81
2018-05-18T00:36:33.682Z,21.82
2018-05-18T00:37:05.256Z,21.80
2018-05-18T00:37:36.857Z,21.80
2018-05-18T00:38:08.448Z,21.82
2018-05-18T00:38:40.061Z,21.82
2018-05-18T00:39:11.657Z,21.81
2018-05-18T00:39:43.233Z,21.80
2018-05-18T00:40:14.838Z,21.81
2018-05-18T00:40:46.465Z,21.81
2018-05-18T00:41:18.055Z,21.80
2018-05-18T00:41:49.631Z,21.81
2018-05-18T00:42:21.246Z,21.82
2018-05-18T00:42:52.817Z,21.82
2018-05-18T00:43:24.419Z,21.82
2018-05-18T00:43:56.030Z,21.82
2018-05-18T00:44:27.614Z,21.82
2018-05-18T00:44:59.238Z,21.82
2018-05-18T00:45:31.130Z,21.81
2018-05-18T00:46:02.766Z,21.82
2018-05-18T00:46:34.363Z,21.82
2018-05-18T00:47:05.961Z,21.81
2018-05-18T00:47:37.568Z,21.82
2018-05-18T00:48:09.157Z,21.81
2018-05-18T00:48:40.738Z,21.81
2018-05-18T00:49:12.305Z,21.82
2018-05-18T00:49:43.918Z,21.81
2018-05-18T00:50:15.564Z,21.80
2018-05-18T00:50:47.147Z,21.80
2018-05-18T00:51:18.754Z,21.80
2018-05-18T00:51:50.352Z,21.81
2018-05-18T00:52:21.946Z,21.79
2018-05-18T00:52:53.517Z,21.80
2018-05-18T00:53:25.112Z,21.81
2018-05-18T00:53:56.689Z,21.81
2018-05-18T00:54:28.270Z,21.82
2018-05-18T00:54:59.854Z,21.82
2018-05-18T00:55:31.474Z,21.82
2018-05-18T00:56:03.054Z,21.82
2018-05-18T00:56:34.704Z,21.81
2018-05-18T00:57:06.286Z,21.83
2018-05-18T00:57:37.871Z,21.82
2018-05-18T00:58:09.455Z,21.80
2018-05-18T00:58:41.058Z,21.82
2018-05-18T00:59:12.647Z,21.81
2018-05-18T00:59:44.263Z,21.81
2018-05-18T01:00:15.836Z,21.81
2018-05-18T01:00:47.421Z,21.79
2018-05-18T01:01:19.034Z,21.81
2018-05-18T01:01:50.653Z,21.82
2018-05-18T01:02:22.244Z,21.82
2018-05-18T01:02:53.850Z,21.82
2018-05-18T01:03:25.444Z,21.81
2018-05-18T01:03:57.032Z,21.79
2018-05-18T01:04:28.635Z,21.81
2018-05-18T01:05:00.250Z,21.81
2018-05-18T01:05:31.827Z,21.82
2018-05-18T01:06:03.464Z,21.82
2018-05-18T01:06:35.046Z,21.81
2018-05-18T01:07:06.670Z,21.81
2018-05-18T01:07:38.264Z,21.80
2018-05-18T01:08:09.874Z,21.79
2018-05-18T01:08:41.453Z,21.79
2018-05-18T01:09:13.039Z,21.79
2018-05-18T01:09:44.689Z,21.79
2018-05-18T01:10:16.285Z,21.79
2018-05-18T01:10:47.897Z,21.79
2018-05-18T01:11:19.496Z,21.78
2018-05-18T01:11:51.096Z,21.79
2018-05-18T01:12:22.692Z,21.79
2018-05-18T01:12:54.275Z,21.79
2018-05-18T01:13:25.857Z,21.78
2018-05-18T01:13:57.452Z,21.78
2018-05-18T01:14:29.034Z,21.78
2018-05-18T01:15:00.654Z,21.80
2018-05-18T01:15:32.249Z,21.80
2018-05-18T01:16:03.895Z,21.80
2018-05-18T01:16:35.492Z,21.80
2018-05-18T01:17:07.074Z,21.80
2018-05-18T01:17:38.653Z,21.80
2018-05-18T01:18:10.237Z,21.80
2018-05-18T01:18:41.867Z,21.80
2018-05-18T01:19:13.438Z,21.80
2018-05-18T01:19:45.036Z,21.79
2018-05-18T01:20:16.636Z,21.80
2018-05-18T01:20:48.252Z,21.79
2018-05-18T01:21:19.834Z,21.78
2018-05-18T01:21:51.437Z,21.79
2018-05-18T01:22:23.008Z,21.78
2018-05-18T01:22:54.585Z,21.78
2018-05-18T01:23:26.153Z,21.78
2018-05-18T01:23:57.796Z,21.78
2018-05-18T01:24:29.382Z,21.79
2018-05-18T01:25:00.986Z,21.79
2018-05-18T01:25:32.585Z,21.79
2018-05-18T01:26:04.174Z,21.78
2018-05-18T01:26:35.768Z,21.79
2018-05-18T01:27:07.371Z,21.79
2018-05-18T01:27:38.973Z,21.79
2018-05-18T01:28:10.558Z,21.79
2018-05-18T01:28:42.152Z,21.78
2018-05-18T01:29:13.778Z,21.79
2018-05-18T01:29:45.358Z,21.80
2018-05-18T01:30:16.986Z,21.80
2018-05-18T01:30:48.559Z,21.80
2018-05-18T01:31:20.138Z,21.79
2018-05-18T01:31:51.722Z,21.76
2018-05-18T01:32:23.306Z,21.78
2018-05-18T01:32:54.897Z,21.77
2018-05-18T01:33:26.512Z,21.77
2018-05-18T01:33:58.115Z,21.78
2018-05-18T01:34:29.702Z,21.78
2018-05-18T01:35:01.292Z,21.78
2018-05-18T01:35:32.940Z,21.78
2018-05-18T01:36:04.523Z,21.77
2018-05-18T01:36:36.088Z,21.78
2018-05-18T01:37:07.661Z,21.79
2018-05-18T01:37:39.246Z,21.79
2018-05-18T01:38:10.824Z,21.79
2018-05-18T01:38:42.406Z,21.79
2018-05-18T01:39:13.993Z,21.79
2018-05-18T01:39:45.570Z,21.78
2018-05-18T01:40:17.165Z,21.78
2018-05-18T01:40:48.807Z,21.78
2018-05-18T01:41:20.404Z,21.78
2018-05-18T01:41:52.014Z,21.77
2018-05-18T01:42:23.606Z,21.77
2018-05-18T01:42:55.186Z,21.76
2018-05-18T01:43:26.803Z,21.76
2018-05-18T01:43:58.430Z,21.76
2018-05-18T01:44:29.996Z,21.77
2018-05-18T01:45:01.601Z,21.77
2018-05-18T01:45:33.206Z,21.77
2018-05-18T01:46:04.844Z,21.77
2018-05-18T01:46:36.458Z,21.78
2018-05-18T01:47:08.065Z,21.79
2018-05-18T01:47:39.675Z,21.78
2018-05-18T01:48:11.276Z,21.78
2018-05-18T01:48:42.852Z,21.78
2018-05-18T01:49:14.500Z,21.77
2018-05-18T01:49:46.106Z,21.77
2018-05-18T01:50:17.713Z,21.76
2018-05-18T01:50:49.297Z,21.77
2018-05-18T01:51:20.908Z,21.77
2018-05-18T01:51:52.516Z,21.76
2018-05-18T01:52:24.104Z,21.77
2018-05-18T01:52:55.710Z,21.76
2018-05-18T01:53:27.304Z,21.76
2018-05-18T01:53:58.878Z,21.76
2018-05-18T01:54:30.462Z,21.75
2018-05-18T01:55:02.032Z,21.75
2018-05-18T01:55:33.614Z,21.75
2018-05-18T01:56:05.214Z,21.75
2018-05-18T01:56:36.806Z,21.74
2018-05-18T01:57:08.421Z,21.75
2018-05-18T01:57:40.026Z,21.74
2018-05-18T01:58:11.619Z,21.74
2018-05-18T01:58:43.212Z,21.75
2018-05-18T01:59:14.808Z,21.75
2018-05-18T01:59:46.418Z,21.75
2018-05-18T02:00:18.016Z,21.73
2018-05-18T02:00:49.614Z,21.75
2018-05-18T02:01:21.192Z,21.75
2018-05-18T02:01:52.800Z,21.74
2018-05-18T02:02:24.401Z,21.74
2018-05-18T02:02:55.982Z,21.74
2018-05-18T02:03:27.573Z,21.74
2018-05-18T02:03:59.160Z,21.74
2018-05-18T02:04:30.730Z,21.73
2018-05-18T02:05:02.354Z,21.73
2018-05-18T02:05:33.934Z,21.73
2018-05-18T02:06:05.528Z,21.74
2018-05-18T02:06:37.114Z,21.74
2018-05-18T02:07:08.704Z,21.74
2018-05-18T02:07:40.284Z,21.74
2018-05-18T02:08:11.913Z,21.74
2018-05-18T02:08:43.500Z,21.74
2018-05-18T02:09:15.075Z,21.75
2018-05-18T02:09:46.659Z,21.74
2018-05-18T02:10:18.252Z,21.74
2018-05-18T02:10:49.848Z,21.74
2018-05-18T02:11:21.451Z,21.73
2018-05-18T02:11:53.051Z,21.73
2018-05-18T02:12:24.634Z,21.73
2018-05-18T02:12:56.254Z,21.73
2018-05-18T02:13:27.896Z,21.73
2018-05-18T02:13:59.495Z,21.72
2018-05-18T02:14:31.078Z,21.72
2018-05-18T02:15:02.663Z,21.72
2018-05-18T02:15:34.267Z,21.71
2018-05-18T02:16:05.874Z,21.72
2018-05-18T02:16:37.458Z,21.71
2018-05-18T02:17:09.065Z,21.72
2018-05-18T02:17:40.659Z,21.71
2018-05-18T02:18:12.276Z,21.71
2018-05-18T02:18:43.852Z,21.71
2018-05-18T02:19:15.442Z,21.70
2018-05-18T02:19:47.022Z,21.71
2018-05-18T02:20:18.616Z,21.70
2018-05-18T02:20:50.238Z,21.71
2018-05-18T02:21:21.850Z,21.70
2018-05-18T02:21:53.448Z,21.70
2018-05-18T02:22:25.066Z,21.70
2018-05-18T02:22:56.650Z,21.70
2018-05-18T02:23:28.274Z,21.69
2018-05-18T02:23:59.854Z,21.70
2018-05-18T02:24:31.438Z,21.70
2018-05-18T02:25:03.032Z,21.71
2018-05-18T02:25:34.629Z,21.71
2018-05-18T02:26:06.214Z,21.70
2018-05-18T02:26:37.829Z,21.70
2018-05-18T02:27:09.410Z,21.70
2018-05-18T02:27:41.018Z,21.70
2018-05-18T02:28:12.606Z,21.70
2018-05-18T02:28:44.190Z,21.70
2018-05-18T02:29:15.789Z,21.69
2018-05-18T02:29:47.370Z,21.71
2018-05-18T02:30:18.972Z,21.69
2018-05-18T02:30:50.558Z,21.69
2018-05-18T02:31:22.139Z,21.70
2018-05-18T02:31:53.866Z,21.69
2018-05-18T02:32:25.508Z,21.70
2018-05-18T02:32:57.123Z,21.69
2018-05-18T02:33:28.698Z,21.69
2018-05-18T02:34:00.269Z,21.69
2018-05-18T02:34:31.869Z,21.70
2018-05-18T02:35:03.474Z,21.70
2018-05-18T02:35:35.085Z,21.70
2018-05-18T02:36:06.695Z,21.69
2018-05-18T02:36:38.282Z,21.70
2018-05-18T02:37:09.870Z,21.71
2018-05-18T02:37:41.531Z,21.70
2018-05-18T02:38:13.144Z,21.69
2018-05-18T02:38:44.749Z,21.70
2018-05-18T02:39:16.362Z,21.70
2018-05-18T02:39:47.960Z,21.71
2018-05-18T02:40:19.570Z,21.71
2018-05-18T02:40:51.163Z,21.71
2018-05-18T02:41:22.734Z,21.72
2018-05-18T02:41:54.339Z,21.71
2018-05-18T02:42:25.943Z,21.71
2018-05-18T02:42:57.526Z,21.71
2018-05-18T02:43:29.116Z,21.72
2018-05-18T02:44:00.704Z,21.71
2018-05-18T02:44:32.306Z,21.71
2018-05-18T02:45:03.919Z,21.71
2018-05-18T02:45:35.510Z,21.71
2018-05-18T02:46:07.161Z,21.71
2018-05-18T02:46:38.770Z,21.72
2018-05-18T02:47:10.345Z,21.69
2018-05-18T02:47:41.926Z,21.71
2018-05-18T02:48:13.538Z,21.71
2018-05-18T02:48:45.117Z,21.71
2018-05-18T02:49:16.725Z,21.71
2018-05-18T02:49:48.334Z,21.71
2018-05-18T02:50:19.950Z,21.70
2018-05-18T02:50:51.550Z,21.71
2018-05-18T02:51:23.197Z,21.72
2018-05-18T02:51:54.806Z,21.72
2018-05-18T02:52:26.459Z,21.72
2018-05-18T02:52:58.030Z,21.72
2018-05-18T02:53:29.639Z,21.72
2018-05-18T02:54:01.299Z,21.72
2018-05-18T02:54:32.910Z,21.72
2018-05-18T02:55:04.514Z,21.73
2018-05-18T02:55:36.106Z,21.72
2018-05-18T02:56:07.686Z,21.72
2018-05-18T02:56:39.297Z,21.72
2018-05-18T02:57:10.886Z,21.72
2018-05-18T02:57:42.494Z,21.72
2018-05-18T02:58:14.078Z,21.71
2018-05-18T02:58:45.681Z,21.71
2018-05-18T02:59:17.316Z,21.71
2018-05-18T02:59:48.907Z,21.72
2018-05-18T03:00:20.554Z,21.72
2018-05-18T03:00:52.162Z,21.73
2018-05-18T03:01:23.736Z,21.71
2018-05-18T03:01:55.332Z,21.73
2018-05-18T03:02:26.958Z,21.72
2018-05-18T03:02:58.542Z,21.73
2018-05-18T03:03:30.126Z,21.72
2018-05-18T03:04:01.771Z,21.70
2018-05-18T03:04:33.387Z,21.72
2018-05-18T03:05:05.030Z,21.72
2018-05-18T03:05:36.628Z,21.72
2018-05-18T03:06:08.245Z,21.72
2018-05-18T03:06:39.926Z,21.72
2018-05-18T03:07:11.530Z,21.72
2018-05-18T03:07:43.118Z,21.72
2018-05-18T03:08:14.688Z,21.73
2018-05-18T03:08:46.279Z,21.73
2018-05-18T03:09:17.870Z,21.73
2018-05-18T03:09:49.518Z,21.73
2018-05-18T03:10:21.131Z,21.74
2018-05-18T03:10:53.181Z,21.74
2018-05-18T03:11:24.777Z,21.74
2018-05-18T03:11:56.395Z,21.74
2018-05-18T03:12:28.010Z,21.74
2018-05-18T03:12:59.600Z,21.74
2018-05-18T03:13:31.210Z,21.74
2018-05-18T03:14:02.830Z,21.74
2018-05-18T03:14:34.413Z,21.73
2018-05-18T03:15:06.060Z,21.73
2018-05-18T03:15:37.642Z,21.72
2018-05-18T03:16:09.263Z,21.72
2018-05-18T03:16:40.914Z,21.73
2018-05-18T03:17:12.500Z,21.72
2018-05-18T03:17:44.086Z,21.72
2018-05-18T03:18:15.675Z,21.72
2018-05-18T03:18:47.281Z,21.72
2018-05-18T03:19:18.876Z,21.72
2018-05-18T03:19:50.487Z,21.73
2018-05-18T03:20:22.098Z,21.73
2018-05-18T03:20:53.768Z,21.73
2018-05-18T03:21:25.365Z,21.73
2018-05-18T03:21:56.970Z,21.72
2018-05-18T03:22:28.550Z,21.72
2018-05-18T03:23:00.130Z,21.72
2018-05-18T03:23:31.734Z,21.71
2018-05-18T03:24:03.314Z,21.71
2018-05-18T03:24:34.925Z,21.71
2018-05-18T03:25:06.510Z,21.71
2018-05-18T03:25:38.144Z,21.71
2018-05-18T03:26:09.727Z,21.71
2018-05-18T03:26:41.330Z,21.72
2018-05-18T03:27:12.934Z,21.71
2018-05-18T03:27:44.505Z,21.72
2018-05-18T03:28:16.110Z,21.71
2018-05-18T03:28:47.722Z,21.71
2018-05-18T03:29:19.372Z,21.71
2018-05-18T03:29:50.982Z,21.71
2018-05-18T03:30:22.590Z,21.70
2018-05-18T03:30:54.182Z,21.70
2018-05-18T03:31:25.782Z,21.70
2018-05-18T03:31:57.365Z,21.71
2018-05-18T03:32:28.945Z,21.70
2018-05-18T03:33:00.550Z,21.69
2018-05-18T03:33:32.130Z,21.70
2018-05-18T03:34:03.729Z,21.71
2018-05-18T03:34:35.345Z,21.70
2018-05-18T03:35:06.946Z,21.70
2018-05-18T03:35:38.530Z,21.71
2018-05-18T03:36:10.134Z,21.70
2018-05-18T03:36:41.708Z,21.70
2018-05-18T03:37:13.278Z,21.70
2018-05-18T03:37:44.858Z,21.70
2018-05-18T03:38:16.462Z,21.70
2018-05-18T03:38:48.118Z,21.70
2018-05-18T03:39:19.696Z,21.70
2018-05-18T03:39:51.282Z,21.70
2018-05-18T03:40:22.865Z,21.70
2018-05-18T03:40:54.470Z,21.69
2018-05-18T03:41:26.082Z,21.69
2018-05-18T03:41:57.653Z,21.70
2018-05-18T03:42:29.230Z,21.69
2018-05-18T03:43:00.818Z,21.69
2018-05-18T03:43:32.425Z,21.69
2018-05-18T03:44:04.077Z,21.68
2018-05-18T03:44:35.665Z,21.69
2018-05-18T03:45:07.247Z,21.69
2018-05-18T03:45:38.893Z,21.69
2018-05-18T03:46:10.470Z,21.69
2018-05-18T03:46:42.055Z,21.68
2018-05-18T03:47:13.732Z,21.67
2018-05-18T03:47:45.282Z,21.67
2018-05-18T03:48:16.865Z,21.67
2018-05-18T03:48:48.475Z,21.65
2018-05-18T03:49:20.065Z,21.67
2018-05-18T03:49:51.675Z,21.68
2018-05-18T03:50:23.263Z,21.68
2018-05-18T03:50:54.927Z,21.67
2018-05-18T03:51:26.509Z,21.67
2018-05-18T03:51:58.106Z,21.68
2018-05-18T03:52:29.717Z,21.67
2018-05-18T03:53:01.330Z,21.66
2018-05-18T03:53:32.907Z,21.66
2018-05-18T03:54:04.477Z,21.66
2018-05-18T03:54:36.054Z,21.65
2018-05-18T03:55:07.627Z,21.66
2018-05-18T03:55:39.251Z,21.67
2018-05-18T03:56:10.834Z,21.68
2018-05-18T03:56:42.425Z,21.68
2018-05-18T03:57:14.023Z,21.68
2018-05-18T03:57:45.612Z,21.67
2018-05-18T03:58:17.212Z,21.66
2018-05-18T03:58:48.792Z,21.66
2018-05-18T03:59:20.384Z,21.67
2018-05-18T03:59:51.964Z,21.67
2018-05-18T04:00:23.550Z,21.67
2018-05-18T04:00:55.170Z,21.66
2018-05-18T04:01:26.801Z,21.64
2018-05-18T04:01:58.410Z,21.65
2018-05-18T04:02:30.013Z,21.63
2018-05-18T04:03:01.631Z,21.63
2018-05-18T04:03:33.255Z,21.63
2018-05-18T04:04:04.858Z,21.63
2018-05-18T04:04:36.429Z,21.62
2018-05-18T04:05:08.010Z,21.63
2018-05-18T04:05:39.611Z,21.63
2018-05-18T04:06:11.804Z,21.62
2018-05-18T04:06:43.380Z,21.62
2018-05-18T04:07:14.975Z,21.62
2018-05-18T04:07:46.610Z,21.61
2018-05-18T04:08:18.178Z,21.62
2018-05-18T04:08:49.822Z,21.64
2018-05-18T04:09:21.418Z,21.63
2018-05-18T04:09:53.021Z,21.63
2018-05-18T04:10:24.676Z,21.65
2018-05-18T04:10:56.226Z,21.64
2018-05-18T04:11:27.867Z,21.64
2018-05-18T04:11:59.487Z,21.64
2018-05-18T04:12:31.066Z,21.64
2018-05-18T04:13:02.645Z,21.64
2018-05-18T04:13:34.230Z,21.61
2018-05-18T04:14:05.820Z,21.62
2018-05-18T04:14:37.402Z,21.61
2018-05-18T04:15:09.017Z,21.61
2018-05-18T04:15:40.598Z,21.60
2018-05-18T04:16:12.190Z,21.60
2018-05-18T04:16:43.814Z,21.60
2018-05-18T04:17:15.384Z,21.59
2018-05-18T04:17:46.990Z,21.60
2018-05-18T04:18:18.597Z,21.59
2018-05-18T04:18:50.191Z,21.59
2018-05-18T04:19:21.842Z,21.60
2018-05-18T04:19:53.434Z,21.58
2018-05-18T04:20:25.027Z,21.58
2018-05-18T04:20:56.620Z,21.58
2018-05-18T04:21:28.243Z,21.58
2018-05-18T04:21:59.877Z,21.57
2018-05-18T04:22:31.458Z,21.58
2018-05-18T04:23:03.061Z,21.58
2018-05-18T04:23:35.581Z,21.59
2018-05-18T04:24:07.174Z,21.59
2018-05-18T04:24:38.810Z,21.60
2018-05-18T04:25:10.419Z,21.60
2018-05-18T04:25:42.065Z,21.61
2018-05-18T04:26:13.636Z,21.61
2018-05-18T04:26:45.243Z,21.62
2018-05-18T04:27:16.853Z,21.61
2018-05-18T04:27:48.432Z,21.62
2018-05-18T04:28:20.014Z,21.61
2018-05-18T04:28:51.630Z,21.62
2018-05-18T04:29:23.214Z,21.62
2018-05-18T04:29:54.805Z,21.63
2018-05-18T04:30:26.467Z,21.64
2018-05-18T04:30:58.071Z,21.65
2018-05-18T04:31:29.678Z,21.64
2018-05-18T04:32:01.265Z,21.65
2018-05-18T04:32:32.880Z,21.65
2018-05-18T04:33:04.475Z,21.66
2018-05-18T04:33:36.069Z,21.68
2018-05-18T04:34:07.640Z,21.67
2018-05-18T04:34:39.228Z,21.68
2018-05-18T04:35:10.806Z,21.69
2018-05-18T04:35:42.440Z,21.70
2018-05-18T04:36:14.019Z,21.72
2018-05-18T04:36:45.597Z,21.73
2018-05-18T04:37:17.197Z,21.72
2018-05-18T04:37:48.768Z,21.73
2018-05-18T04:38:20.354Z,21.74
2018-05-18T04:38:52.002Z,21.75
2018-05-18T04:39:23.588Z,21.75
2018-05-18T04:39:55.177Z,21.76
2018-05-18T04:40:26.765Z,21.77
2018-05-18T04:40:58.376Z,21.78
2018-05-18T04:41:29.966Z,21.77
2018-05-18T04:42:01.546Z,21.78
2018-05-18T04:42:33.162Z,21.79
2018-05-18T04:43:04.750Z,21.79
2018-05-18T04:43:36.334Z,21.81
2018-05-18T04:44:07.931Z,21.88
2018-05-18T04:44:39.535Z,21.97
2018-05-18T04:45:11.188Z,22.03
2018-05-18T04:45:42.792Z,22.05
2018-05-18T04:46:14.401Z,22.05
2018-05-18T04:46:45.981Z,22.05
2018-05-18T04:47:17.592Z,22.05
2018-05-18T04:47:49.185Z,22.03
2018-05-18T04:48:20.764Z,22.03
2018-05-18T04:48:52.374Z,22.04
2018-05-18T04:49:24.072Z,22.04
2018-05-18T04:49:55.663Z,22.03
2018-05-18T04:50:27.277Z,22.03
2018-05-18T04:50:58.860Z,22.05
2018-05-18T04:51:30.487Z,22.03
2018-05-18T04:52:02.065Z,22.02
2018-05-18T04:52:33.669Z,22.02
2018-05-18T04:53:05.307Z,22.00
2018-05-18T04:53:36.919Z,21.98
2018-05-18T04:54:08.525Z,22.01
2018-05-18T04:54:40.114Z,22.01
2018-05-18T04:55:11.721Z,22.03
2018-05-18T04:55:43.314Z,22.02
2018-05-18T04:56:14.894Z,22.03
2018-05-18T04:56:46.464Z,22.02
2018-05-18T04:57:18.065Z,22.02
2018-05-18T04:57:49.670Z,22.02
2018-05-18T04:58:21.288Z,22.04
2018-05-18T04:58:52.909Z,22.06
2018-05-18T04:59:24.502Z,22.04
2018-05-18T04:59:56.080Z,22.03
2018-05-18T05:00:27.682Z,22.04
2018-05-18T05:00:59.290Z,22.02
2018-05-18T05:01:30.888Z,22.02
2018-05-18T05:02:02.484Z,22.03
2018-05-18T05:02:34.130Z,22.01
2018-05-18T05:03:05.738Z,22.00
2018-05-18T05:03:37.354Z,22.01
2018-05-18T05:04:08.959Z,22.01
2018-05-18T05:04:40.546Z,22.04
2018-05-18T05:05:12.128Z,22.06
2018-05-18T05:05:43.745Z,22.06
2018-05-18T05:06:15.350Z,22.06
2018-05-18T05:06:46.961Z,22.06
2018-05-18T05:07:18.549Z,22.06
2018-05-18T05:07:50.162Z,22.05
2018-05-18T05:08:21.770Z,22.06
2018-05-18T05:08:53.392Z,22.07
2018-05-18T05:09:24.977Z,22.07
2018-05-18T05:09:56.586Z,22.08
2018-05-18T05:10:28.186Z,22.10
2018-05-18T05:10:59.800Z,22.10
2018-05-18T05:11:31.406Z,22.11
2018-05-18T05:12:03.062Z,22.13
2018-05-18T05:12:34.677Z,22.12
2018-05-18T05:13:06.266Z,22.11
2018-05-18T05:13:37.854Z,22.11
2018-05-18T05:14:09.448Z,22.11
2018-05-18T05:14:41.096Z,22.08
2018-05-18T05:15:12.704Z,22.08
2018-05-18T05:15:44.294Z,22.09
2018-05-18T05:16:15.873Z,22.09
2018-05-18T05:16:47.463Z,22.08
2018-05-18T05:17:19.061Z,22.07
2018-05-18T05:17:50.757Z,22.07
2018-05-18T05:18:22.281Z,22.08
2018-05-18T05:18:53.852Z,22.08
2018-05-18T05:19:25.459Z,22.07
2018-05-18T05:19:57.109Z,22.08
2018-05-18T05:20:28.693Z,22.10
2018-05-18T05:21:00.264Z,22.11
2018-05-18T05:21:31.891Z,22.11
2018-05-18T05:22:03.472Z,22.12
2018-05-18T05:22:35.072Z,22.12
2018-05-18T05:23:06.724Z,22.10
2018-05-18T05:23:38.333Z,22.09
2018-05-18T05:24:09.941Z,22.08
2018-05-18T05:24:41.554Z,22.05
2018-05-18T05:25:13.141Z,22.04
2018-05-18T05:25:44.717Z,22.05
2018-05-18T05:26:16.288Z,22.06
2018-05-18T05:26:47.894Z,22.06
2018-05-18T05:27:19.483Z,22.06
2018-05-18T05:27:51.080Z,22.06
2018-05-18T05:28:22.722Z,22.05
2018-05-18T05:28:54.308Z,22.04
2018-05-18T05:29:25.885Z,22.03
2018-05-18T05:29:57.489Z,22.03
2018-05-18T05:30:29.198Z,22.02
2018-05-18T05:31:00.740Z,22.02
2018-05-18T05:31:32.338Z,22.02
2018-05-18T05:32:03.946Z,22.02
2018-05-18T05:32:35.530Z,22.02
2018-05-18T05:33:07.114Z,22.01
2018-05-18T05:33:38.742Z,22.00
2018-05-18T05:34:10.318Z,22.01
2018-05-18T05:34:41.888Z,21.98
2018-05-18T05:35:13.467Z,22.01
2018-05-18T05:35:45.037Z,22.00
2018-05-18T05:36:16.628Z,22.01
2018-05-18T05:36:48.211Z,21.98
2018-05-18T05:37:19.796Z,21.95
2018-05-18T05:37:51.368Z,21.97
2018-05-18T05:38:22.945Z,21.98
2018-05-18T05:38:54.556Z,21.99
2018-05-18T05:39:26.153Z,22.00
2018-05-18T05:39:57.758Z,22.00
2018-05-18T05:40:29.338Z,22.00
2018-05-18T05:41:00.922Z,21.99
2018-05-18T05:41:33.115Z,22.01
2018-05-18T05:42:04.727Z,22.00
2018-05-18T05:42:36.370Z,21.99
2018-05-18T05:43:07.961Z,21.97
2018-05-18T05:43:39.549Z,21.97
2018-05-18T05:44:11.170Z,21.95
2018-05-18T05:44:42.773Z,21.94
2018-05-18T05:45:14.377Z,21.96
2018-05-18T05:45:45.990Z,21.97
2018-05-18T05:46:17.570Z,21.97
2018-05-18T05:46:49.247Z,21.98
2018-05-18T05:47:20.803Z,21.97
2018-05-18T05:47:52.414Z,21.97
2018-05-18T05:48:24.022Z,21.97
2018-05-18T05:48:55.595Z,21.98
2018-05-18T05:49:27.182Z,21.98
2018-05-18T05:49:58.770Z,21.97
2018-05-18T05:50:30.357Z,21.98
2018-05-18T05:51:01.940Z,21.98
2018-05-18T05:51:33.525Z,21.97
2018-05-18T05:52:05.115Z,21.96
2018-05-18T05:52:36.684Z,21.95
2018-05-18T05:53:08.309Z,21.94
2018-05-18T05:53:39.910Z,21.93
2018-05-18T05:54:11.480Z,21.93
2018-05-18T05:54:43.062Z,21.92
2018-05-18T05:55:14.665Z,21.92
2018-05-18T05:55:46.291Z,21.91
2018-05-18T05:56:17.888Z,21.92
2018-05-18T05:56:49.498Z,21.91
2018-05-18T05:57:21.073Z,21.92
2018-05-18T05:57:52.650Z,21.93
2018-05-18T05:58:24.315Z,21.91
2018-05-18T05:58:55.867Z,21.91
2018-05-18T05:59:27.464Z,21.90
2018-05-18T05:59:59.074Z,21.91
2018-05-18T06:00:31.013Z,21.90
2018-05-18T06:01:02.630Z,21.91
2018-05-18T06:01:34.214Z,21.91
2018-05-18T06:02:05.785Z,21.92
2018-05-18T06:02:37.380Z,21.92
2018-05-18T06:03:08.962Z,21.92
2018-05-18T06:03:40.572Z,21.93
2018-05-18T06:04:12.159Z,21.91
2018-05-18T06:04:43.742Z,21.91
2018-05-18T06:05:15.323Z,21.90
2018-05-18T06:05:46.910Z,21.89
2018-05-18T06:06:18.554Z,21.88
2018-05-18T06:06:50.170Z,21.88
2018-05-18T06:07:21.768Z,21.89
2018-05-18T06:07:53.392Z,21.90
2018-05-18T06:08:24.999Z,21.90
2018-05-18T06:08:56.579Z,21.91
2018-05-18T06:09:28.181Z,21.94
2018-05-18T06:09:59.770Z,21.93
2018-05-18T06:10:31.361Z,21.93
2018-05-18T06:11:02.966Z,21.92
2018-05-18T06:11:34.543Z,21.94
2018-05-18T06:12:06.200Z,21.94
2018-05-18T06:12:37.786Z,21.93
2018-05-18T06:13:09.390Z,21.93
2018-05-18T06:13:40.972Z,21.93
2018-05-18T06:14:12.554Z,21.93
2018-05-18T06:14:44.149Z,21.92
2018-05-18T06:15:15.752Z,21.92
2018-05-18T06:15:47.358Z,21.92
2018-05-18T06:16:18.942Z,21.94
2018-05-18T06:16:50.554Z,21.95
2018-05-18T06:17:22.133Z,21.94
2018-05-18T06:17:53.738Z,21.94
2018-05-18T06:18:25.346Z,21.93
2018-05-18T06:18:56.924Z,21.91
2018-05-18T06:19:28.623Z,21.92
2018-05-18T06:20:00.133Z,21.92
2018-05-18T06:20:31.704Z,21.92
2018-05-18T06:21:03.306Z,21.92
2018-05-18T06:21:34.885Z,21.91
2018-05-18T06:22:06.505Z,21.92
2018-05-18T06:22:38.072Z,21.92
2018-05-18T06:23:09.678Z,21.91
2018-05-18T06:23:41.262Z,21.91
2018-05-18T06:24:12.852Z,21.89
2018-05-18T06:24:44.424Z,21.89
2018-05-18T06:25:16.030Z,21.90
2018-05-18T06:25:47.641Z,21.91
2018-05-18T06:26:19.213Z,21.90
2018-05-18T06:26:50.817Z,21.90
2018-05-18T06:27:22.429Z,21.93
2018-05-18T06:27:54.023Z,21.93
2018-05-18T06:28:25.606Z,21.93
2018-05-18T06:28:57.255Z,21.94
2018-05-18T06:29:28.828Z,21.97
2018-05-18T06:30:00.400Z,21.97
2018-05-18T06:30:32.007Z,21.96
2018-05-18T06:31:03.616Z,21.97
2018-05-18T06:31:35.226Z,21.98
2018-05-18T06:32:06.820Z,21.98
2018-05-18T06:32:38.402Z,22.00
2018-05-18T06:33:09.997Z,22.01
2018-05-18T06:33:41.624Z,22.03
2018-05-18T06:34:13.216Z,22.02
2018-05-18T06:34:44.992Z,22.02
2018-05-18T06:35:16.526Z,22.04
2018-05-18T06:35:48.047Z,22.07
2018-05-18T06:36:19.628Z,22.08
2018-05-18T06:36:51.233Z,22.06
2018-05-18T06:37:22.833Z,22.07
2018-05-18T06:37:54.446Z,22.06
2018-05-18T06:38:26.034Z,22.05
2018-05-18T06:38:57.735Z,22.07
2018-05-18T06:39:29.285Z,22.06
2018-05-18T06:40:00.889Z,22.07
2018-05-18T06:40:32.472Z,22.07
2018-05-18T06:41:04.116Z,22.08
2018-05-18T06:41:35.712Z,22.08
2018-05-18T06:42:07.318Z,22.10
2018-05-18T06:42:38.916Z,22.10
2018-05-18T06:43:10.488Z,22.11
2018-05-18T06:43:42.084Z,22.11
2018-05-18T06:44:13.670Z,22.10
2018-05-18T06:44:45.269Z,22.12
2018-05-18T06:45:16.859Z,22.11
2018-05-18T06:45:48.442Z,22.11
2018-05-18T06:46:20.222Z,22.12
2018-05-18T06:46:51.851Z,22.10